Time;durP1;ratioP1;P1;durP2;ratioP2;P2;SDS_P1;SDS_P2;PMS_P1;PMS_P2;Temp;Humidity;BMP_temperature;BMP_pressure;BME280_temperature;BME280_humidity;BME280_pressure;Samples;Min_cycle;Max_cycle;Signal;HPM_P1;HPM_P2
2021/07/05 00:00:13;;;;;;;4.15;2.90;;;;;;;;;;6278925;22;20056;-75
2021/07/05 00:02:39;;;;;;;4.63;3.33;;;;;;;;;;6278744;22;20004;-76
2021/07/05 00:05:06;;;;;;;4.13;3.70;;;;;;;;;;6278671;22;20050;-76
2021/07/05 00:07:33;;;;;;;4.38;3.30;;;;;;;;;;6278635;22;20008;-76
2021/07/05 00:09:59;;;;;;;4.18;2.72;;;;;;;;;;6251563;22;20083;-76
2021/07/05 00:12:25;;;;;;;5.10;2.45;;;;;;;;;;6278627;22;20478;-76
2021/07/05 00:14:51;;;;;;;6.38;3.10;;;;;;;;;;6251564;22;19999;-76
2021/07/05 00:17:17;;;;;;;5.15;3.08;;;;;;;;;;6278594;22;20038;-75
2021/07/05 00:19:43;;;;;;;4.50;3.08;;;;;;;;;;6278579;22;20019;-76
2021/07/05 00:22:09;;;;;;;4.28;2.75;;;;;;;;;;6278568;22;19996;-76
2021/07/05 00:24:36;;;;;;;5.70;2.70;;;;;;;;;;6278372;22;19996;-76
2021/07/05 00:27:02;;;;;;;6.32;3.28;;;;;;;;;;6278366;22;20000;-76
2021/07/05 00:29:28;;;;;;;4.22;3.03;;;;;;;;;;6278419;22;20004;-76
2021/07/05 00:31:54;;;;;;;4.20;2.67;;;;;;;;;;6278569;22;20050;-76
2021/07/05 00:34:20;;;;;;;3.05;2.80;;;;;;;;;;6278460;22;20000;-76
2021/07/05 00:36:46;;;;;;;5.30;3.47;;;;;;;;;;6278130;22;20012;-76
2021/07/05 00:39:12;;;;;;;8.05;3.60;;;;;;;;;;6278368;22;20319;-76
2021/07/05 00:41:39;;;;;;;7.53;3.45;;;;;;;;;;6278345;22;20027;-76
2021/07/05 00:44:05;;;;;;;4.95;3.70;;;;;;;;;;6278283;22;20510;-76
2021/07/05 00:46:31;;;;;;;3.80;3.10;;;;;;;;;;6278262;22;20419;-76
2021/07/05 00:48:57;;;;;;;4.85;3.38;;;;;;;;;;6278337;22;20010;-76
2021/07/05 00:51:24;;;;;;;4.45;2.85;;;;;;;;;;6278278;22;20019;-76
2021/07/05 00:53:50;;;;;;;4.28;3.45;;;;;;;;;;6278345;22;19995;-75
2021/07/05 00:56:17;;;;;;;3.83;3.22;;;;;;;;;;6278179;22;19999;-76
2021/07/05 00:58:44;;;;;;;3.50;3.20;;;;;;;;;;6278169;22;20000;-76
2021/07/05 01:01:10;;;;;;;3.55;2.90;;;;;;;;;;6278104;22;20057;-76
2021/07/05 01:03:36;;;;;;;3.78;3.10;;;;;;;;;;6277838;22;20366;-76
2021/07/05 01:06:02;;;;;;;3.35;2.95;;;;;;;;;;6278122;22;20026;-76
2021/07/05 01:08:29;;;;;;;5.32;3.63;;;;;;;;;;6277975;22;20093;-76
2021/07/05 01:10:55;;;;;;;4.25;3.15;;;;;;;;;;6277999;22;20425;-76
2021/07/05 01:13:21;;;;;;;5.00;3.53;;;;;;;;;;6277988;22;20323;-75
2021/07/05 01:15:47;;;;;;;4.55;3.20;;;;;;;;;;6278174;22;20022;-76
2021/07/05 01:18:13;;;;;;;4.43;2.80;;;;;;;;;;6278046;22;19999;-76
2021/07/05 01:20:40;;;;;;;3.80;3.40;;;;;;;;;;6278021;22;20094;-76
2021/07/05 01:25:52;;;;;;;3.90;3.50;;;;;;;;;;6278109;22;20077;-76
2021/07/05 01:28:18;;;;;;;3.47;3.17;;;;;;;;;;6278274;22;20058;-76
2021/07/05 01:30:44;;;;;;;6.72;3.92;;;;;;;;;;6278025;22;20027;-76
2021/07/05 01:33:11;;;;;;;8.75;5.18;;;;;;;;;;6277957;22;20546;-76
2021/07/05 01:35:37;;;;;;;5.72;4.35;;;;;;;;;;6277835;22;20030;-76
2021/07/05 01:38:09;;;;;;;10.05;6.28;;;;;;;;;;6277660;22;20012;-76
2021/07/05 01:40:36;;;;;;;7.72;4.57;;;;;;;;;;6277689;22;20027;-76
2021/07/05 01:43:03;;;;;;;8.00;5.47;;;;;;;;;;6250639;22;20015;-76
2021/07/05 01:45:30;;;;;;;9.02;4.28;;;;;;;;;;6277755;22;19999;-76
2021/07/05 01:47:56;;;;;;;4.70;3.00;;;;;;;;;;6277702;22;20333;-76
2021/07/05 01:50:23;;;;;;;4.28;3.45;;;;;;;;;;6277655;22;20019;-76
2021/07/05 01:52:50;;;;;;;4.53;3.33;;;;;;;;;;6277691;22;20000;-76
2021/07/05 01:55:17;;;;;;;4.43;3.15;;;;;;;;;;6277632;22;20075;-76
2021/07/05 01:57:43;;;;;;;5.32;3.10;;;;;;;;;;6277599;22;19999;-76
2021/07/05 02:00:09;;;;;;;5.40;3.20;;;;;;;;;;6277499;22;20000;-76
2021/07/05 02:02:35;;;;;;;4.43;3.40;;;;;;;;;;6277500;22;20067;-76
2021/07/05 02:05:01;;;;;;;4.25;3.50;;;;;;;;;;6250456;22;20423;-77
2021/07/05 02:07:28;;;;;;;3.50;2.70;;;;;;;;;;6277396;22;20138;-76
2021/07/05 02:09:54;;;;;;;7.93;3.58;;;;;;;;;;6277721;22;20010;-76
2021/07/05 02:12:20;;;;;;;5.03;3.83;;;;;;;;;;6250821;22;20323;-76
2021/07/05 02:14:46;;;;;;;4.53;3.30;;;;;;;;;;6277517;22;20011;-76
2021/07/05 02:17:12;;;;;;;5.53;3.35;;;;;;;;;;6277557;22;20003;-75
2021/07/05 02:19:38;;;;;;;3.42;2.95;;;;;;;;;;6250263;22;20435;-75
2021/07/05 02:22:05;;;;;;;5.00;3.80;;;;;;;;;;6277385;22;20000;-76
2021/07/05 02:24:32;;;;;;;4.60;3.22;;;;;;;;;;6277403;22;20007;-76
2021/07/05 02:26:58;;;;;;;6.78;3.35;;;;;;;;;;6277373;22;20010;-75
2021/07/05 02:29:24;;;;;;;4.93;3.22;;;;;;;;;;6277634;22;20320;-75
2021/07/05 02:31:50;;;;;;;3.30;2.90;;;;;;;;;;6277383;22;20327;-75
2021/07/05 02:34:16;;;;;;;4.78;3.58;;;;;;;;;;6277217;22;19996;-76
2021/07/05 02:36:43;;;;;;;4.10;3.67;;;;;;;;;;6277176;22;20025;-75
2021/07/05 02:39:09;;;;;;;4.07;3.15;;;;;;;;;;6277608;22;19999;-75
2021/07/05 02:41:35;;;;;;;4.35;3.53;;;;;;;;;;6277223;22;19999;-76
2021/07/05 02:44:02;;;;;;;4.35;3.53;;;;;;;;;;6277041;22;19999;-76
2021/07/05 02:46:28;;;;;;;5.47;3.90;;;;;;;;;;6277615;22;20070;-76
2021/07/05 02:48:54;;;;;;;5.85;3.67;;;;;;;;;;6277010;22;20087;-76
2021/07/05 02:51:20;;;;;;;3.80;3.35;;;;;;;;;;6277225;22;20004;-76
2021/07/05 02:53:46;;;;;;;5.93;3.90;;;;;;;;;;6277196;22;20446;-76
2021/07/05 02:56:12;;;;;;;4.47;3.55;;;;;;;;;;6277074;22;20050;-76
2021/07/05 02:58:38;;;;;;;6.25;3.58;;;;;;;;;;6277110;22;19999;-77
2021/07/05 03:01:07;;;;;;;4.45;3.78;;;;;;;;;;6276946;22;20010;-76
2021/07/05 03:03:34;;;;;;;5.22;3.70;;;;;;;;;;6277247;22;20031;-76
2021/07/05 03:06:00;;;;;;;6.57;4.32;;;;;;;;;;6276966;22;20022;-76
2021/07/05 03:08:26;;;;;;;5.88;4.50;;;;;;;;;;6276824;22;20000;-76
2021/07/05 03:10:54;;;;;;;5.88;4.47;;;;;;;;;;6277195;22;19999;-76
2021/07/05 03:13:20;;;;;;;4.95;4.20;;;;;;;;;;6277095;22;20007;-76
2021/07/05 03:15:47;;;;;;;4.95;3.50;;;;;;;;;;6276938;22;20000;-76
2021/07/05 03:18:14;;;;;;;5.78;3.47;;;;;;;;;;6277145;22;19999;-76
2021/07/05 03:20:41;;;;;;;5.35;3.97;;;;;;;;;;6277283;22;20030;-76
2021/07/05 03:23:08;;;;;;;7.03;4.07;;;;;;;;;;6277035;22;20004;-76
2021/07/05 03:25:36;;;;;;;8.98;4.55;;;;;;;;;;6276943;22;20023;-76
2021/07/05 03:28:03;;;;;;;8.65;4.65;;;;;;;;;;6276799;22;20004;-76
2021/07/05 03:30:29;;;;;;;7.57;4.20;;;;;;;;;;6276827;22;20004;-76
2021/07/05 03:32:55;;;;;;;7.10;4.10;;;;;;;;;;6249779;22;20035;-76
2021/07/05 03:35:22;;;;;;;10.55;5.32;;;;;;;;;;6276774;22;20019;-76
2021/07/05 03:37:49;;;;;;;10.00;5.47;;;;;;;;;;6276867;22;20444;-76
2021/07/05 03:40:17;;;;;;;12.38;5.80;;;;;;;;;;6276731;22;20027;-76
2021/07/05 03:42:43;;;;;;;10.85;6.32;;;;;;;;;;6276867;22;19999;-76
2021/07/05 03:45:10;;;;;;;10.70;5.88;;;;;;;;;;6276440;22;19996;-77
2021/07/05 03:47:36;;;;;;;9.43;5.65;;;;;;;;;;6276766;22;20071;-75
2021/07/05 03:50:07;;;;;;;6.70;4.55;;;;;;;;;;6276731;22;20030;-76
2021/07/05 03:52:34;;;;;;;4.72;3.97;;;;;;;;;;6276679;22;20454;-75
2021/07/05 03:55:00;;;;;;;8.52;4.03;;;;;;;;;;6276777;22;19996;-76
2021/07/05 03:57:26;;;;;;;8.38;4.00;;;;;;;;;;6276592;22;20007;-76
2021/07/05 03:59:56;;;;;;;6.55;4.35;;;;;;;;;;6276846;22;20004;-76
2021/07/05 04:02:23;;;;;;;6.53;4.38;;;;;;;;;;6276632;22;20463;-77
2021/07/05 04:04:49;;;;;;;8.40;5.22;;;;;;;;;;6276815;22;20014;-76
2021/07/05 04:07:16;;;;;;;7.85;4.22;;;;;;;;;;6249388;22;20003;-76
2021/07/05 04:09:42;;;;;;;5.75;4.25;;;;;;;;;;6249831;22;20343;-76
2021/07/05 04:12:10;;;;;;;7.18;4.95;;;;;;;;;;6276583;22;20008;-76
2021/07/05 04:14:37;;;;;;;7.78;4.40;;;;;;;;;;6276616;22;20004;-75
2021/07/05 04:17:03;;;;;;;5.30;4.03;;;;;;;;;;6276312;22;20451;-75
2021/07/05 04:19:29;;;;;;;4.35;3.40;;;;;;;;;;6276818;22;20046;-76
2021/07/05 04:21:55;;;;;;;4.85;3.67;;;;;;;;;;6276884;22;19999;-76
2021/07/05 04:24:21;;;;;;;6.28;3.70;;;;;;;;;;6276666;22;20071;-76
2021/07/05 04:26:48;;;;;;;5.00;3.95;;;;;;;;;;6276480;22;20011;-76
2021/07/05 04:29:14;;;;;;;8.15;3.60;;;;;;;;;;6276369;22;20039;-76
2021/07/05 04:31:40;;;;;;;6.47;4.43;;;;;;;;;;6276594;22;20000;-76
2021/07/05 04:34:06;;;;;;;12.77;7.25;;;;;;;;;;6276874;22;20053;-75
2021/07/05 04:36:32;;;;;;;11.48;6.55;;;;;;;;;;6276437;22;20522;-76
2021/07/05 04:38:58;;;;;;;8.45;4.78;;;;;;;;;;6278736;22;20004;-76
2021/07/05 04:41:25;;;;;;;9.98;5.65;;;;;;;;;;6278258;22;20061;-77
2021/07/05 04:43:51;;;;;;;7.85;4.50;;;;;;;;;;6278355;22;20443;-76
2021/07/05 04:46:18;;;;;;;8.68;4.50;;;;;;;;;;6278291;22;19996;-75
2021/07/05 04:48:45;;;;;;;7.05;4.70;;;;;;;;;;6278125;22;20028;-75
2021/07/05 04:51:13;;;;;;;8.63;4.60;;;;;;;;;;6278229;22;20466;-75
2021/07/05 04:53:39;;;;;;;9.23;5.35;;;;;;;;;;6278220;22;20046;-76
2021/07/05 04:56:05;;;;;;;9.70;4.65;;;;;;;;;;6277975;22;20035;-74
2021/07/05 04:58:32;;;;;;;7.60;4.68;;;;;;;;;;6278367;22;19999;-74
2021/07/05 05:00:58;;;;;;;7.38;4.80;;;;;;;;;;6278173;22;20054;-75
2021/07/05 05:03:24;;;;;;;16.25;5.40;;;;;;;;;;6250930;22;20008;-76
2021/07/05 05:05:50;;;;;;;9.30;5.78;;;;;;;;;;6278244;22;20453;-75
2021/07/05 05:08:16;;;;;;;11.73;5.68;;;;;;;;;;6277854;22;20011;-76
2021/07/05 05:10:42;;;;;;;10.57;5.00;;;;;;;;;;6278136;22;20328;-74
2021/07/05 05:13:10;;;;;;;7.55;5.22;;;;;;;;;;6278431;22;20079;-76
2021/07/05 05:15:36;;;;;;;10.15;5.07;;;;;;;;;;6277591;22;20011;-76
2021/07/05 05:18:02;;;;;;;7.68;5.13;;;;;;;;;;6277706;22;20011;-75
2021/07/05 05:20:28;;;;;;;7.05;5.28;;;;;;;;;;6277728;22;20000;-75
2021/07/05 05:22:54;;;;;;;8.65;5.15;;;;;;;;;;6277968;22;20003;-75
2021/07/05 05:25:20;;;;;;;8.30;4.82;;;;;;;;;;6277705;22;20062;-76
2021/07/05 05:27:47;;;;;;;8.75;5.40;;;;;;;;;;6277764;22;20038;-75
2021/07/05 05:30:15;;;;;;;9.70;5.57;;;;;;;;;;6278064;22;20030;-76
2021/07/05 05:32:41;;;;;;;6.38;5.18;;;;;;;;;;6276427;22;20046;-76
2021/07/05 05:35:08;;;;;;;9.73;5.53;;;;;;;;;;6270890;22;20035;-76
2021/07/05 05:37:34;;;;;;;9.90;4.82;;;;;;;;;;6275349;22;20012;-76
2021/07/05 05:40:00;;;;;;;5.88;4.47;;;;;;;;;;6272621;22;20016;-76
2021/07/05 05:42:26;;;;;;;11.20;4.78;;;;;;;;;;6275194;22;20008;-76
2021/07/05 05:44:53;;;;;;;8.30;4.93;;;;;;;;;;6248121;22;20393;-76
2021/07/05 05:47:19;;;;;;;7.32;4.65;;;;;;;;;;6272938;22;20008;-76
2021/07/05 05:49:45;;;;;;;18.30;13.98;;;;;;;;;;6248593;22;19999;-76
2021/07/05 05:52:11;;;;;;;38.03;33.58;;;;;;;;;;6275242;22;19999;-76
2021/07/05 05:54:37;;;;;;;17.65;9.10;;;;;;;;;;6274809;22;20023;-75
2021/07/05 05:57:03;;;;;;;13.80;6.03;;;;;;;;;;6274749;22;20007;-76
2021/07/05 05:59:32;;;;;;;13.48;9.00;;;;;;;;;;6274793;22;19996;-75
2021/07/05 06:01:58;;;;;;;7.03;6.00;;;;;;;;;;6274493;22;19996;-77
2021/07/05 06:04:24;;;;;;;9.82;6.43;;;;;;;;;;6273839;22;20049;-76
2021/07/05 06:06:52;;;;;;;13.88;7.30;;;;;;;;;;6275035;22;20451;-75
2021/07/05 06:09:18;;;;;;;15.05;9.55;;;;;;;;;;6274581;22;20083;-76
2021/07/05 06:11:44;;;;;;;9.65;6.22;;;;;;;;;;6274752;22;19999;-76
2021/07/05 06:14:11;;;;;;;12.18;7.65;;;;;;;;;;6273086;22;19996;-76
2021/07/05 06:16:37;;;;;;;11.68;6.60;;;;;;;;;;6274443;22;20015;-77
2021/07/05 06:19:03;;;;;;;7.18;5.60;;;;;;;;;;6273541;22;20727;-78
2021/07/05 06:21:32;;;;;;;9.32;5.55;;;;;;;;;;6272716;22;19996;-77
2021/07/05 06:23:58;;;;;;;7.38;5.18;;;;;;;;;;6274153;22;19995;-76
2021/07/05 06:26:25;;;;;;;8.70;5.63;;;;;;;;;;6274518;22;20053;-76
2021/07/05 06:28:51;;;;;;;27.63;21.45;;;;;;;;;;6274552;22;20708;-77
2021/07/05 06:31:19;;;;;;;12.77;9.00;;;;;;;;;;6274499;22;20443;-75
2021/07/05 06:33:45;;;;;;;37.58;33.53;;;;;;;;;;6273622;22;20015;-77
2021/07/05 06:36:12;;;;;;;9.30;6.47;;;;;;;;;;6274245;22;19996;-76
2021/07/05 06:38:39;;;;;;;9.32;6.80;;;;;;;;;;6272697;22;20008;-77
2021/07/05 06:41:05;;;;;;;10.77;6.38;;;;;;;;;;6272919;22;20121;-76
2021/07/05 06:43:32;;;;;;;9.70;7.18;;;;;;;;;;6272988;22;20007;-76
2021/07/05 06:45:58;;;;;;;11.98;6.57;;;;;;;;;;6273115;22;20309;-77
2021/07/05 06:48:24;;;;;;;10.63;6.18;;;;;;;;;;6272820;22;20427;-75
2021/07/05 06:50:50;;;;;;;9.85;5.82;;;;;;;;;;6273026;22;20074;-76
2021/07/05 06:53:16;;;;;;;8.32;5.28;;;;;;;;;;6272996;22;20054;-76
2021/07/05 06:55:42;;;;;;;8.25;6.00;;;;;;;;;;6272560;22;20078;-78
2021/07/05 06:58:08;;;;;;;7.40;5.35;;;;;;;;;;6272750;22;20323;-76
2021/07/05 07:00:34;;;;;;;6.70;4.88;;;;;;;;;;6273594;22;20003;-75
2021/07/05 07:03:03;;;;;;;5.68;4.45;;;;;;;;;;6273901;22;20024;-73
2021/07/05 07:05:33;;;;;;;7.88;5.68;;;;;;;;;;6274378;22;20041;-72
2021/07/05 07:07:59;;;;;;;30.80;23.50;;;;;;;;;;6273489;22;20388;-76
2021/07/05 07:10:25;;;;;;;16.38;11.65;;;;;;;;;;6273123;22;20002;-75
2021/07/05 07:12:54;;;;;;;7.47;5.40;;;;;;;;;;6271470;22;20000;-76
2021/07/05 07:15:23;;;;;;;8.35;5.13;;;;;;;;;;6273290;22;20454;-76
2021/07/05 07:20:15;;;;;;;6.63;5.00;;;;;;;;;;6284880;22;20003;-77
2021/07/05 07:22:42;;;;;;;8.07;4.85;;;;;;;;;;6273279;22;20012;-76
2021/07/05 07:25:10;;;;;;;13.18;5.72;;;;;;;;;;6274232;22;20000;-76
2021/07/05 07:27:36;;;;;;;11.57;7.70;;;;;;;;;;6272480;22;20070;-74
2021/07/05 07:30:03;;;;;;;11.63;6.45;;;;;;;;;;6273685;22;20470;-75
2021/07/05 07:32:30;;;;;;;7.70;4.88;;;;;;;;;;6274263;22;20051;-76
2021/07/05 07:34:56;;;;;;;8.02;5.20;;;;;;;;;;6273857;22;20003;-75
2021/07/05 07:37:22;;;;;;;10.18;5.30;;;;;;;;;;6273896;22;20352;-74
2021/07/05 07:39:58;;;;;;;9.75;5.07;;;;;;;;;;6274271;22;20004;-75
2021/07/05 07:42:24;;;;;;;13.30;5.68;;;;;;;;;;6272220;22;20445;-75
2021/07/05 07:44:50;;;;;;;9.07;5.10;;;;;;;;;;6272308;22;20027;-76
2021/07/05 07:47:16;;;;;;;8.50;4.95;;;;;;;;;;6245702;22;20010;-76
2021/07/05 07:49:42;;;;;;;10.15;5.13;;;;;;;;;;6272827;22;20057;-77
2021/07/05 07:52:08;;;;;;;8.07;5.10;;;;;;;;;;6272631;22;20083;-75
2021/07/05 07:54:35;;;;;;;7.25;4.53;;;;;;;;;;6272633;22;20075;-76
2021/07/05 07:57:02;;;;;;;21.45;5.80;;;;;;;;;;6272200;22;20062;-69
2021/07/05 07:59:28;;;;;;;11.40;5.60;;;;;;;;;;6272666;22;20022;-76
2021/07/05 08:01:54;;;;;;;6.55;4.70;;;;;;;;;;6272587;22;20067;-78
2021/07/05 08:04:20;;;;;;;4.55;3.78;;;;;;;;;;6273047;22;20076;-75
2021/07/05 08:06:46;;;;;;;6.97;4.30;;;;;;;;;;6272802;22;20137;-77
2021/07/05 08:09:12;;;;;;;6.68;4.32;;;;;;;;;;6245318;22;20015;-74
2021/07/05 08:11:39;;;;;;;7.30;4.07;;;;;;;;;;6274138;22;20026;-81
2021/07/05 08:14:06;;;;;;;6.63;4.82;;;;;;;;;;6274230;22;20057;-78
2021/07/05 08:16:33;;;;;;;8.10;4.78;;;;;;;;;;6275117;22;20012;-76
2021/07/05 08:18:59;;;;;;;5.88;4.85;;;;;;;;;;6247269;22;20335;-78
2021/07/05 08:21:26;;;;;;;7.88;4.55;;;;;;;;;;6274757;22;20431;-78
2021/07/05 08:23:52;;;;;;;7.30;4.25;;;;;;;;;;6274446;22;20003;-78
2021/07/05 08:26:18;;;;;;;5.20;3.92;;;;;;;;;;6274098;22;20075;-78
2021/07/05 08:28:44;;;;;;;8.02;4.32;;;;;;;;;;6273723;22;19999;-80
2021/07/05 08:31:11;;;;;;;6.03;5.30;;;;;;;;;;6274769;22;20015;-76
2021/07/05 08:33:38;;;;;;;5.60;4.40;;;;;;;;;;6275142;22;20006;-76
2021/07/05 08:36:04;;;;;;;7.00;4.40;;;;;;;;;;6247597;22;20384;-78
2021/07/05 08:38:31;;;;;;;5.72;5.22;;;;;;;;;;6275426;22;20788;-76
2021/07/05 08:40:58;;;;;;;7.30;4.55;;;;;;;;;;6275177;22;20006;-76
2021/07/05 08:43:27;;;;;;;6.20;4.88;;;;;;;;;;6275090;22;19996;-78
2021/07/05 08:46:13;;;;;;;4.65;4.03;;;;;;;;;;6275178;22;20014;-76
2021/07/05 08:48:40;;;;;;;8.80;4.60;;;;;;;;;;6275108;22;20004;-76
2021/07/05 08:51:07;;;;;;;6.07;4.35;;;;;;;;;;6275078;22;20000;-80
2021/07/05 08:53:33;;;;;;;5.35;4.85;;;;;;;;;;6274921;22;20089;-77
2021/07/05 08:56:00;;;;;;;6.45;4.50;;;;;;;;;;6275033;22;20010;-76
2021/07/05 08:58:26;;;;;;;4.72;4.15;;;;;;;;;;6275080;22;20004;-79
2021/07/05 09:00:52;;;;;;;6.40;4.82;;;;;;;;;;6274927;22;20045;-78
2021/07/05 09:03:22;;;;;;;5.95;4.50;;;;;;;;;;6274966;22;20004;-76
2021/07/05 09:06:06;;;;;;;6.57;3.75;;;;;;;;;;6275062;22;20000;-78
2021/07/05 09:08:38;;;;;;;7.18;6.22;;;;;;;;;;6275087;22;20043;-77
2021/07/05 09:11:04;;;;;;;5.72;4.85;;;;;;;;;;6274745;22;20008;-77
2021/07/05 09:13:30;;;;;;;6.05;5.45;;;;;;;;;;6275248;22;20000;-77
2021/07/05 09:15:56;;;;;;;5.82;4.10;;;;;;;;;;6270957;22;20010;-77
2021/07/05 09:18:46;;;;;;;7.55;4.00;;;;;;;;;;6246382;22;20110;-77
2021/07/05 09:21:14;;;;;;;8.75;7.63;;;;;;;;;;6274304;22;20090;-78
2021/07/05 09:23:47;;;;;;;6.80;5.07;;;;;;;;;;6273560;22;20082;-75
2021/07/05 09:26:32;;;;;;;7.65;4.82;;;;;;;;;;6273851;22;20419;-78
2021/07/05 09:28:59;;;;;;;6.22;4.18;;;;;;;;;;6273650;22;20004;-76
2021/07/05 09:31:32;;;;;;;5.97;4.38;;;;;;;;;;6273259;22;20041;-77
2021/07/05 09:33:58;;;;;;;7.03;4.97;;;;;;;;;;6274072;22;19999;-76
2021/07/05 09:36:24;;;;;;;5.40;4.90;;;;;;;;;;6273601;22;20014;-78
2021/07/05 09:38:51;;;;;;;5.18;4.13;;;;;;;;;;6273755;22;20000;-78
2021/07/05 09:41:19;;;;;;;3.65;3.35;;;;;;;;;;6273769;22;20007;-76
2021/07/05 09:43:45;;;;;;;4.78;4.25;;;;;;;;;;6274196;22;19999;-79
2021/07/05 09:46:13;;;;;;;7.00;4.07;;;;;;;;;;6273792;22;20027;-76
2021/07/05 09:48:45;;;;;;;6.10;3.80;;;;;;;;;;6273848;22;20767;-76
2021/07/05 09:51:14;;;;;;;4.63;3.78;;;;;;;;;;6273487;22;20007;-78
2021/07/05 09:53:44;;;;;;;4.82;3.92;;;;;;;;;;6274057;22;20049;-77
2021/07/05 09:56:23;;;;;;;13.27;4.50;;;;;;;;;;6274056;22;20028;-79
2021/07/05 09:58:51;;;;;;;9.32;4.50;;;;;;;;;;6246361;22;20087;-80
2021/07/05 10:01:37;;;;;;;4.70;3.10;;;;;;;;;;6273680;22;20015;-76
2021/07/05 10:04:07;;;;;;;7.38;4.97;;;;;;;;;;6253041;22;20011;-79
2021/07/05 10:06:47;;;;;;;5.68;3.30;;;;;;;;;;6273162;22;20075;-77
2021/07/05 10:09:17;;;;;;;4.05;3.22;;;;;;;;;;6273884;22;20023;-79
2021/07/05 10:11:44;;;;;;;4.50;3.75;;;;;;;;;;6246344;22;20011;-77
2021/07/05 10:14:13;;;;;;;6.25;3.20;;;;;;;;;;6273412;22;20008;-79
2021/07/05 10:16:40;;;;;;;4.18;2.90;;;;;;;;;;6273207;22;20077;-77
2021/07/05 10:19:07;;;;;;;4.50;3.20;;;;;;;;;;6273890;22;20427;-78
2021/07/05 10:21:36;;;;;;;4.35;3.05;;;;;;;;;;6273692;22;20011;-76
2021/07/05 10:24:03;;;;;;;4.75;3.47;;;;;;;;;;6273572;22;19999;-79
2021/07/05 10:26:29;;;;;;;22.20;4.70;;;;;;;;;;6273241;22;20070;-77
2021/07/05 10:28:55;;;;;;;4.00;2.95;;;;;;;;;;6272733;22;20462;-77
2021/07/05 10:31:22;;;;;;;4.82;3.15;;;;;;;;;;6272661;22;20003;-76
2021/07/05 10:33:48;;;;;;;5.63;3.80;;;;;;;;;;6272447;22;20473;-79
2021/07/05 10:36:14;;;;;;;4.75;3.17;;;;;;;;;;6272608;22;20000;-78
2021/07/05 10:38:44;;;;;;;4.95;3.17;;;;;;;;;;6273161;22;20004;-79
2021/07/05 10:41:12;;;;;;;5.43;3.10;;;;;;;;;;6273708;22;20011;-77
2021/07/05 10:43:59;;;;;;;4.97;3.13;;;;;;;;;;6273290;22;20003;-78
2021/07/05 10:46:38;;;;;;;4.18;2.70;;;;;;;;;;6272997;22;20004;-79
2021/07/05 10:49:04;;;;;;;4.72;3.20;;;;;;;;;;6273462;22;20010;-82
2021/07/05 10:51:44;;;;;;;3.17;2.88;;;;;;;;;;6273205;22;20007;-82
2021/07/05 10:54:10;;;;;;;2.92;2.25;;;;;;;;;;6273579;22;19999;-79
2021/07/05 10:56:44;;;;;;;2.67;1.80;;;;;;;;;;6272528;22;19999;-81
2021/07/05 10:59:13;;;;;;;4.53;3.85;;;;;;;;;;6271966;22;20050;-82
2021/07/05 11:01:46;;;;;;;3.58;2.60;;;;;;;;;;6272186;22;20389;-79
2021/07/05 11:04:28;;;;;;;3.25;2.70;;;;;;;;;;6272200;22;20004;-79
2021/07/05 11:06:56;;;;;;;3.10;2.80;;;;;;;;;;6272406;22;19999;-78
2021/07/05 11:09:23;;;;;;;3.13;2.78;;;;;;;;;;6272940;22;20011;-83
2021/07/05 11:11:58;;;;;;;3.75;2.15;;;;;;;;;;6270836;22;20053;-82
2021/07/05 11:14:33;;;;;;;2.85;2.20;;;;;;;;;;6272062;22;20030;-83
2021/07/05 11:17:21;;;;;;;2.72;2.10;;;;;;;;;;6272604;22;20015;-83
2021/07/05 11:19:57;;;;;;;2.20;2.00;;;;;;;;;;6271819;22;19999;-83
2021/07/05 11:22:25;;;;;;;3.60;2.20;;;;;;;;;;6272304;22;20015;-81
2021/07/05 11:24:52;;;;;;;2.60;2.38;;;;;;;;;;6272594;22;20049;-81
2021/07/05 11:27:30;;;;;;;4.72;2.60;;;;;;;;;;6272837;22;20003;-83
2021/07/05 11:30:11;;;;;;;11.80;3.15;;;;;;;;;;6272530;22;20019;-84
2021/07/05 11:32:39;;;;;;;11.88;2.72;;;;;;;;;;6272885;22;20054;-79
2021/07/05 11:35:25;;;;;;;3.35;2.17;;;;;;;;;;6273377;22;20054;-82
2021/07/05 11:38:09;;;;;;;3.42;2.22;;;;;;;;;;6272552;22;20090;-79
2021/07/05 11:40:40;;;;;;;2.60;2.00;;;;;;;;;;6270097;22;20019;-78
2021/07/05 11:43:06;;;;;;;2.35;2.08;;;;;;;;;;6270924;22;19999;-79
2021/07/05 11:45:51;;;;;;;4.65;2.38;;;;;;;;;;6271793;22;20010;-85
2021/07/05 11:48:36;;;;;;;30.50;4.22;;;;;;;;;;6246740;22;20378;-81
2021/07/05 11:51:02;;;;;;;2.33;1.65;;;;;;;;;;6273294;22;20088;-80
2021/07/05 11:53:28;;;;;;;3.90;2.13;;;;;;;;;;6274449;22;20039;-83
2021/07/05 11:55:54;;;;;;;3.15;1.98;;;;;;;;;;6273819;22;20000;-80
2021/07/05 11:58:23;;;;;;;13.70;2.33;;;;;;;;;;6274110;22;20022;-80
2021/07/05 12:00:49;;;;;;;2.25;1.65;;;;;;;;;;6274444;22;20268;-78
2021/07/05 12:03:15;;;;;;;2.20;1.75;;;;;;;;;;6273995;22;20043;-80
2021/07/05 12:05:45;;;;;;;3.03;1.80;;;;;;;;;;6273571;22;20331;-82
2021/07/05 12:08:13;;;;;;;6.75;2.97;;;;;;;;;;6274600;22;20011;-78
2021/07/05 12:10:40;;;;;;;2.90;1.80;;;;;;;;;;6274913;22;20026;-75
2021/07/05 12:13:17;;;;;;;4.57;2.28;;;;;;;;;;6274677;22;20031;-79
2021/07/05 12:15:45;;;;;;;2.22;1.65;;;;;;;;;;6273392;22;20000;-80
2021/07/05 12:18:16;;;;;;;2.72;1.83;;;;;;;;;;6248064;22;20003;-86
2021/07/05 12:20:42;;;;;;;1.75;1.65;;;;;;;;;;6275802;22;20079;-78
2021/07/05 12:23:10;;;;;;;4.20;1.92;;;;;;;;;;6248200;22;20011;-76
2021/07/05 12:25:36;;;;;;;3.25;2.00;;;;;;;;;;6275965;22;20000;-78
2021/07/05 12:28:12;;;;;;;3.15;2.08;;;;;;;;;;6247392;22;20153;-77
2021/07/05 12:30:39;;;;;;;3.13;1.90;;;;;;;;;;6273269;22;20076;-79
2021/07/05 12:33:08;;;;;;;4.13;2.45;;;;;;;;;;6274884;22;20007;-77
2021/07/05 12:35:36;;;;;;;2.78;1.90;;;;;;;;;;6274504;22;20004;-78
2021/07/05 12:38:03;;;;;;;3.05;1.73;;;;;;;;;;6274812;22;20016;-78
2021/07/05 12:40:33;;;;;;;3.13;1.83;;;;;;;;;;6248189;22;20018;-77
2021/07/05 12:43:20;;;;;;;3.17;2.00;;;;;;;;;;6274075;22;20000;-78
2021/07/05 12:45:53;;;;;;;4.90;2.20;;;;;;;;;;6273678;22;20000;-78
2021/07/05 12:48:20;;;;;;;8.32;3.42;;;;;;;;;;6275540;22;20011;-78
2021/07/05 12:50:47;;;;;;;14.45;4.43;;;;;;;;;;6274453;22;20003;-79
2021/07/05 12:53:31;;;;;;;4.65;2.60;;;;;;;;;;6274622;22;20099;-77
2021/07/05 12:56:04;;;;;;;2.85;2.50;;;;;;;;;;6275011;22;20000;-77
2021/07/05 12:58:49;;;;;;;4.18;1.85;;;;;;;;;;6274645;22;20026;-78
2021/07/05 13:01:16;;;;;;;2.67;2.05;;;;;;;;;;6275101;22;20011;-78
2021/07/05 13:04:01;;;;;;;2.67;1.63;;;;;;;;;;6274796;22;20027;-78
2021/07/05 13:06:28;;;;;;;3.10;2.20;;;;;;;;;;6275481;22;19996;-79
2021/07/05 13:09:16;;;;;;;2.03;1.70;;;;;;;;;;6274264;22;20042;-78
2021/07/05 13:11:44;;;;;;;6.97;2.20;;;;;;;;;;6274869;22;20414;-79
2021/07/05 13:14:30;;;;;;;2.58;1.92;;;;;;;;;;6274431;22;20071;-79
2021/07/05 13:17:17;;;;;;;2.72;2.45;;;;;;;;;;6274862;22;20075;-79
2021/07/05 13:19:44;;;;;;;2.92;2.00;;;;;;;;;;6274884;22;20004;-78
2021/07/05 13:22:14;;;;;;;4.72;1.88;;;;;;;;;;6275255;22;20071;-83
2021/07/05 13:24:44;;;;;;;2.92;1.75;;;;;;;;;;6275803;22;20004;-80
2021/07/05 13:27:18;;;;;;;3.13;2.00;;;;;;;;;;6248520;22;20050;-80
2021/07/05 13:29:45;;;;;;;2.20;1.75;;;;;;;;;;6275694;22;20008;-79
2021/07/05 13:32:16;;;;;;;2.90;1.80;;;;;;;;;;6275098;22;20057;-79
2021/07/05 13:34:43;;;;;;;2.13;1.92;;;;;;;;;;6275468;22;19996;-79
2021/07/05 13:37:22;;;;;;;2.90;1.80;;;;;;;;;;6274575;22;20012;-82
2021/07/05 13:39:51;;;;;;;2.33;1.80;;;;;;;;;;6275986;22;20019;-78
2021/07/05 13:42:18;;;;;;;4.50;2.30;;;;;;;;;;6275177;22;20072;-80
2021/07/05 13:44:46;;;;;;;2.97;2.20;;;;;;;;;;6275651;22;20019;-82
2021/07/05 13:47:15;;;;;;;3.95;2.45;;;;;;;;;;6275274;22;20008;-77
2021/07/05 13:49:42;;;;;;;1.92;1.52;;;;;;;;;;6275612;22;20008;-77
2021/07/05 13:52:08;;;;;;;23.60;19.52;;;;;;;;;;6249807;22;20413;-77
2021/07/05 13:54:34;;;;;;;7.38;3.75;;;;;;;;;;6276650;22;20007;-77
2021/07/05 13:57:19;;;;;;;3.13;2.83;;;;;;;;;;6276704;22;20000;-77
2021/07/05 13:59:45;;;;;;;2.60;1.80;;;;;;;;;;6275971;22;20015;-78
2021/07/05 14:02:17;;;;;;;3.05;1.70;;;;;;;;;;6249409;22;20049;-77
2021/07/05 14:04:44;;;;;;;3.55;2.70;;;;;;;;;;6276626;22;20040;-76
2021/07/05 14:07:10;;;;;;;3.60;3.17;;;;;;;;;;6249046;22;20090;-76
2021/07/05 14:09:37;;;;;;;5.25;4.57;;;;;;;;;;6248280;22;20004;-76
2021/07/05 14:12:03;;;;;;;8.60;5.78;;;;;;;;;;6276008;22;20000;-76
2021/07/05 14:14:29;;;;;;;24.08;17.60;;;;;;;;;;6276077;22;20073;-78
2021/07/05 14:16:58;;;;;;;2.78;2.20;;;;;;;;;;6276676;22;20063;-76
2021/07/05 14:19:24;;;;;;;2.95;2.38;;;;;;;;;;6275804;22;20086;-79
2021/07/05 14:21:51;;;;;;;3.03;2.33;;;;;;;;;;6275791;22;20026;-77
2021/07/05 14:24:18;;;;;;;7.65;2.10;;;;;;;;;;6276488;22;20071;-78
2021/07/05 14:26:45;;;;;;;4.90;2.40;;;;;;;;;;6276325;22;20003;-77
2021/07/05 14:29:11;;;;;;;6.07;2.60;;;;;;;;;;6275310;22;20086;-80
2021/07/05 14:31:37;;;;;;;8.13;2.40;;;;;;;;;;6274822;22;20479;-76
2021/07/05 14:34:04;;;;;;;3.65;2.65;;;;;;;;;;6276941;22;20335;-78
2021/07/05 14:36:32;;;;;;;2.35;1.90;;;;;;;;;;6276936;22;20081;-78
2021/07/05 14:38:59;;;;;;;3.92;2.70;;;;;;;;;;6277226;22;20097;-77
2021/07/05 14:41:25;;;;;;;3.10;2.80;;;;;;;;;;6276601;22;20008;-78
2021/07/05 14:43:51;;;;;;;3.63;2.60;;;;;;;;;;6277112;22;20018;-78
2021/07/05 14:46:17;;;;;;;3.05;2.13;;;;;;;;;;6277122;22;20006;-76
2021/07/05 14:48:43;;;;;;;4.00;2.90;;;;;;;;;;6277103;22;20006;-76
2021/07/05 14:51:09;;;;;;;4.13;3.45;;;;;;;;;;6274113;22;20049;-76